Date,TemperatureHighF,TemperatureAvgF,TemperatureLowF,DewpointHighF,DewpointAvgF,DewpointLowF,HumidityHigh,HumidityAvg,HumidityLow,PressureMaxIn,PressureMinIn,WindSpeedMaxMPH,WindSpeedAvgMPH,GustSpeedMaxMPH,PrecipitationSumIn
2013-2-1,17.8,11.3,5.4,9.1,5.1,1.2,83,76,61,30.57,30.05,14,5,24,0.00
2013-2-2,16.5,9.6,1.0,9.5,4.1,-3.6,82,78,70,30.61,30.45,8,2,15,0.00
2013-2-3,27.7,13.0,-1.1,16.6,5.5,-4.9,85,73,43,30.46,30.22,7,1,11,0.00
2013-2-4,19.6,11.2,0.9,11.0,1.5,-5.0,87,66,37,30.37,30.22,22,5,32,0.08
2013-2-5,21.7,9.5,-8.0,8.3,-1.4,-12.6,81,63,35,30.44,30.32,6,1,9,0.00
2013-2-6,25.0,15.2,-2.7,18.1,7.6,-8.6,87,72,52,30.81,30.32,12,3,19,0.00
2013-2-7,23.9,8.4,-8.1,6.8,-1.7,-12.7,81,64,45,30.95,30.76,8,2,16,0.00
2013-2-8,23.5,16.8,13.6,19.8,12.9,6.4,90,85,64,30.76,30.38,8,3,17,0.00
2013-2-9,16.7,7.8,-6.5,10.8,0.7,-10.9,88,73,51,30.83,30.43,11,3,18,0.00
2013-2-10,34.5,13.3,-15.7,14.7,-1.9,-20.6,82,54,29,30.90,30.64,8,1,14,0.00
2013-2-11,38.7,30.9,26.1,34.0,19.9,-2.4,92,68,26,30.64,30.12,15,4,26,0.18
2013-2-12,31.6,27.9,24.4,29.2,25.0,21.1,93,89,84,30.38,30.11,17,7,27,0.00
2013-2-13,34.7,27.4,22.6,28.0,22.3,19.4,90,81,65,30.35,30.25,10,1,17,0.01
2013-2-14,36.0,28.2,20.5,25.2,20.9,17.8,91,75,53,30.42,30.26,7,1,10,0.01
2013-2-15,35.1,29.6,23.0,29.8,23.3,14.9,92,77,61,30.48,30.30,14,4,23,0.17
2013-2-16,33.3,18.7,6.8,17.7,8.3,-1.2,83,65,44,30.49,30.39,8,2,11,0.00
2013-2-17,16.0,5.5,-1.8,3.0,-2.6,-6.1,83,69,52,30.43,30.24,13,4,25,0.00
2013-2-18,23.2,8.5,-5.3,5.8,-4.0,-9.9,80,59,32,30.64,30.43,12,4,22,0.00
2013-2-19,43.7,26.7,7.2,28.7,16.5,-0.9,93,68,34,30.56,30.14,13,3,26,0.00
2013-2-20,28.2,20.9,16.0,20.4,14.1,9.6,88,75,52,30.30,30.15,19,8,28,0.00
2013-2-24,33.1,28.1,26.8,25.1,23.1,22.3,88,81,72,30.06,29.92,8,3,14,0.06
2013-2-25,42.6,30.2,24.1,30.2,25.2,20.8,89,82,59,30.32,30.06,6,1,11,0.02
2013-2-26,43.9,31.1,16.0,32.6,23.0,13.9,93,73,53,30.37,30.11,12,3,21,0.01
2013-2-27,40.8,34.0,30.4,33.1,28.0,21.4,89,79,64,30.11,29.68,12,3,23,0.05
2013-2-28,41.9,34.0,30.0,29.1,27.0,24.6,87,76,57,29.75,29.63,11,2,17,0.01